sensor_id;sensor_type;location;lat;lon;timestamp;pressure;altitude;pressure_sealevel;temperature;humidity
64141;BME280;50436;50.618;7.932;2022-10-16T00:01:16;96243.50;;;12.52;100.00
64141;BME280;50436;50.618;7.932;2022-10-16T00:04:02;96246.44;;;12.51;100.00
64141;BME280;50436;50.618;7.932;2022-10-16T00:06:49;96258.81;;;12.57;100.00
64141;BME280;50436;50.618;7.932;2022-10-16T00:09:34;96244.31;;;12.68;100.00
64141;BME280;50436;50.618;7.932;2022-10-16T00:12:22;96235.47;;;12.63;100.00
64141;BME280;50436;50.618;7.932;2022-10-16T00:15:09;96225.81;;;12.62;100.00
64141;BME280;50436;50.618;7.932;2022-10-16T00:17:54;96226.34;;;12.64;100.00
64141;BME280;50436;50.618;7.932;2022-10-16T00:20:40;96232.78;;;12.58;100.00
64141;BME280;50436;50.618;7.932;2022-10-16T00:23:26;96233.84;;;12.57;100.00
64141;BME280;50436;50.618;7.932;2022-10-16T00:26:15;96223.66;;;12.48;100.00
64141;BME280;50436;50.618;7.932;2022-10-16T00:29:02;96242.97;;;12.55;100.00
64141;BME280;50436;50.618;7.932;2022-10-16T00:31:48;96234.66;;;12.47;100.00
64141;BME280;50436;50.618;7.932;2022-10-16T00:34:33;96220.38;;;12.36;100.00
64141;BME280;50436;50.618;7.932;2022-10-16T00:37:20;96238.38;;;12.31;100.00
64141;BME280;50436;50.618;7.932;2022-10-16T00:40:07;96237.56;;;12.30;100.00
64141;BME280;50436;50.618;7.932;2022-10-16T00:42:53;96240.78;;;12.37;100.00
64141;BME280;50436;50.618;7.932;2022-10-16T00:45:39;96244.00;;;12.44;100.00
64141;BME280;50436;50.618;7.932;2022-10-16T00:48:25;96234.09;;;12.50;100.00
64141;BME280;50436;50.618;7.932;2022-10-16T00:51:11;96242.97;;;12.45;100.00
64141;BME280;50436;50.618;7.932;2022-10-16T00:53:57;96247.81;;;12.53;100.00
64141;BME280;50436;50.618;7.932;2022-10-16T00:56:43;96256.13;;;12.57;100.00
64141;BME280;50436;50.618;7.932;2022-10-16T00:59:36;96258.28;;;12.55;100.00
64141;BME280;50436;50.618;7.932;2022-10-16T01:02:23;96269.78;;;12.50;100.00
64141;BME280;50436;50.618;7.932;2022-10-16T01:05:09;96288.31;;;12.52;100.00
64141;BME280;50436;50.618;7.932;2022-10-16T01:08:09;96298.25;;;12.46;100.00
64141;BME280;50436;50.618;7.932;2022-10-16T01:11:05;96284.56;;;12.48;100.00
64141;BME280;50436;50.618;7.932;2022-10-16T01:13:58;96291.28;;;12.45;100.00
64141;BME280;50436;50.618;7.932;2022-10-16T01:17:01;96275.16;;;12.50;100.00
64141;BME280;50436;50.618;7.932;2022-10-16T01:29:45;96256.59;;;12.34;100.00
64141;BME280;50436;50.618;7.932;2022-10-16T01:32:53;96259.00;;;12.25;100.00
64141;BME280;50436;50.618;7.932;2022-10-16T01:35:48;96282.06;;;12.26;100.00
64141;BME280;50436;50.618;7.932;2022-10-16T01:38:39;96274.03;;;12.26;100.00
64141;BME280;50436;50.618;7.932;2022-10-16T01:41:35;96281.78;;;12.17;100.00
64141;BME280;50436;50.618;7.932;2022-10-16T01:44:28;96273.69;;;12.12;100.00
64141;BME280;50436;50.618;7.932;2022-10-16T01:47:15;96267.03;;;12.15;100.00
64141;BME280;50436;50.618;7.932;2022-10-16T01:50:03;96278.25;;;12.07;100.00
64141;BME280;50436;50.618;7.932;2022-10-16T01:52:52;96273.13;;;12.05;100.00
64141;BME280;50436;50.618;7.932;2022-10-16T01:55:44;96274.78;;;12.06;100.00
64141;BME280;50436;50.618;7.932;2022-10-16T01:58:33;96277.69;;;11.99;100.00
64141;BME280;50436;50.618;7.932;2022-10-16T02:01:22;96261.56;;;11.94;100.00
64141;BME280;50436;50.618;7.932;2022-10-16T02:04:39;96258.88;;;11.94;100.00
64141;BME280;50436;50.618;7.932;2022-10-16T02:07:24;96276.25;;;11.82;100.00
64141;BME280;50436;50.618;7.932;2022-10-16T02:10:10;96274.06;;;11.79;100.00
64141;BME280;50436;50.618;7.932;2022-10-16T02:13:00;96307.03;;;11.79;100.00
64141;BME280;50436;50.618;7.932;2022-10-16T02:15:48;96301.66;;;11.79;100.00
64141;BME280;50436;50.618;7.932;2022-10-16T02:18:33;96299.56;;;11.81;100.00
64141;BME280;50436;50.618;7.932;2022-10-16T02:21:25;96290.41;;;11.77;100.00
64141;BME280;50436;50.618;7.932;2022-10-16T02:27:19;96291.97;;;11.73;100.00
64141;BME280;50436;50.618;7.932;2022-10-16T02:30:12;96293.31;;;11.70;100.00
64141;BME280;50436;50.618;7.932;2022-10-16T02:33:00;96297.34;;;11.68;100.00
64141;BME280;50436;50.618;7.932;2022-10-16T02:35:49;96312.84;;;11.66;100.00
64141;BME280;50436;50.618;7.932;2022-10-16T02:38:36;96301.31;;;11.65;100.00
64141;BME280;50436;50.618;7.932;2022-10-16T02:41:23;96300.00;;;11.68;100.00
64141;BME280;50436;50.618;7.932;2022-10-16T02:44:09;96302.13;;;11.66;100.00
64141;BME280;50436;50.618;7.932;2022-10-16T02:46:55;96288.97;;;11.64;100.00
64141;BME280;50436;50.618;7.932;2022-10-16T02:49:41;96296.72;;;11.56;100.00
64141;BME280;50436;50.618;7.932;2022-10-16T02:52:27;96311.28;;;11.70;100.00
64141;BME280;50436;50.618;7.932;2022-10-16T02:55:13;96317.72;;;11.74;100.00
64141;BME280;50436;50.618;7.932;2022-10-16T02:57:59;96309.19;;;11.77;100.00
64141;BME280;50436;50.618;7.932;2022-10-16T03:00:44;96309.19;;;11.77;100.00
64141;BME280;50436;50.618;7.932;2022-10-16T03:03:31;96310.78;;;11.78;100.00
64141;BME280;50436;50.618;7.932;2022-10-16T03:06:17;96300.81;;;11.68;100.00
64141;BME280;50436;50.618;7.932;2022-10-16T03:09:03;96303.22;;;11.70;100.00
64141;BME280;50436;50.618;7.932;2022-10-16T03:11:49;96306.41;;;11.67;100.00
64141;BME280;50436;50.618;7.932;2022-10-16T03:14:34;96317.66;;;11.64;100.00
64141;BME280;50436;50.618;7.932;2022-10-16T03:17:20;96299.66;;;11.59;100.00
64141;BME280;50436;50.618;7.932;2022-10-16T03:20:07;96305.59;;;11.61;100.00
64141;BME280;50436;50.618;7.932;2022-10-16T03:22:53;96315.25;;;11.62;100.00
64141;BME280;50436;50.618;7.932;2022-10-16T03:25:39;96340.16;;;11.63;100.00
64141;BME280;50436;50.618;7.932;2022-10-16T03:28:25;96330.78;;;11.65;100.00
64141;BME280;50436;50.618;7.932;2022-10-16T03:31:11;96314.72;;;11.65;100.00
64141;BME280;50436;50.618;7.932;2022-10-16T03:33:57;96310.97;;;11.66;100.00
64141;BME280;50436;50.618;7.932;2022-10-16T03:36:42;96319.00;;;11.66;100.00
64141;BME280;50436;50.618;7.932;2022-10-16T03:39:28;96303.72;;;11.62;100.00
64141;BME280;50436;50.618;7.932;2022-10-16T03:42:14;96288.13;;;11.54;100.00
64141;BME280;50436;50.618;7.932;2022-10-16T03:45:00;96297.78;;;11.55;100.00
64141;BME280;50436;50.618;7.932;2022-10-16T03:47:46;96308.22;;;11.56;100.00
64141;BME280;50436;50.618;7.932;2022-10-16T03:50:33;96324.38;;;11.66;100.00
64141;BME280;50436;50.618;7.932;2022-10-16T03:53:18;96323.28;;;11.62;100.00
64141;BME280;50436;50.618;7.932;2022-10-16T03:56:04;96325.41;;;11.60;100.00
64141;BME280;50436;50.618;7.932;2022-10-16T03:58:50;96335.34;;;11.60;100.00
64141;BME280;50436;50.618;7.932;2022-10-16T04:01:36;96324.03;;;11.58;100.00
64141;BME280;50436;50.618;7.932;2022-10-16T04:04:22;96325.38;;;11.55;100.00
64141;BME280;50436;50.618;7.932;2022-10-16T04:07:08;96324.63;;;11.60;100.00
64141;BME280;50436;50.618;7.932;2022-10-16T04:09:54;96339.78;;;11.49;100.00
64141;BME280;50436;50.618;7.932;2022-10-16T04:12:40;96340.78;;;11.38;100.00
64141;BME280;50436;50.618;7.932;2022-10-16T04:15:26;96348.56;;;11.39;100.00
64141;BME280;50436;50.618;7.932;2022-10-16T04:18:12;96346.63;;;11.30;100.00
64141;BME280;50436;50.618;7.932;2022-10-16T04:21:05;96361.38;;;11.32;100.00
64141;BME280;50436;50.618;7.932;2022-10-16T04:23:51;96350.19;;;11.40;100.00
64141;BME280;50436;50.618;7.932;2022-10-16T04:26:37;96351.78;;;11.36;100.00
64141;BME280;50436;50.618;7.932;2022-10-16T04:29:23;96360.63;;;11.37;100.00
64141;BME280;50436;50.618;7.932;2022-10-16T04:32:09;96357.94;;;11.37;100.00
64141;BME280;50436;50.618;7.932;2022-10-16T04:34:55;96365.16;;;11.36;100.00
64141;BME280;50436;50.618;7.932;2022-10-16T04:37:41;96350.13;;;11.35;100.00
64141;BME280;50436;50.618;7.932;2022-10-16T04:40:26;96346.91;;;11.33;100.00
64141;BME280;50436;50.618;7.932;2022-10-16T04:43:13;96334.84;;;11.31;100.00
64141;BME280;50436;50.618;7.932;2022-10-16T04:45:59;96353.34;;;11.32;100.00
64141;BME280;50436;50.618;7.932;2022-10-16T04:48:44;96365.13;;;11.31;100.00
64141;BME280;50436;50.618;7.932;2022-10-16T04:51:30;96365.41;;;11.35;100.00
64141;BME280;50436;50.618;7.932;2022-10-16T04:54:16;96368.06;;;11.30;100.00
64141;BME280;50436;50.618;7.932;2022-10-16T04:57:02;96357.53;;;11.23;100.00
64141;BME280;50436;50.618;7.932;2022-10-16T04:59:52;96356.22;;;11.26;100.00
64141;BME280;50436;50.618;7.932;2022-10-16T05:02:38;96353.59;;;11.31;100.00
64141;BME280;50436;50.618;7.932;2022-10-16T05:05:24;96357.06;;;11.31;100.00
64141;BME280;50436;50.618;7.932;2022-10-16T05:08:14;96371.56;;;11.35;100.00
64141;BME280;50436;50.618;7.932;2022-10-16T05:11:00;96385.06;;;11.46;100.00
64141;BME280;50436;50.618;7.932;2022-10-16T05:13:47;96389.91;;;11.49;100.00
64141;BME280;50436;50.618;7.932;2022-10-16T05:16:32;96379.09;;;11.38;100.00
64141;BME280;50436;50.618;7.932;2022-10-16T05:19:18;96372.09;;;11.32;100.00
64141;BME280;50436;50.618;7.932;2022-10-16T05:22:04;96373.97;;;11.32;100.00
64141;BME280;50436;50.618;7.932;2022-10-16T05:24:50;96373.50;;;11.40;100.00
64141;BME280;50436;50.618;7.932;2022-10-16T05:27:36;96379.59;;;11.35;100.00
64141;BME280;50436;50.618;7.932;2022-10-16T05:30:22;96377.38;;;11.27;100.00
64141;BME280;50436;50.618;7.932;2022-10-16T05:33:08;96381.38;;;11.25;100.00
64141;BME280;50436;50.618;7.932;2022-10-16T05:35:54;96392.41;;;11.28;100.00
64141;BME280;50436;50.618;7.932;2022-10-16T05:38:40;96387.03;;;11.28;100.00
64141;BME280;50436;50.618;7.932;2022-10-16T05:41:26;96391.84;;;11.26;100.00
64141;BME280;50436;50.618;7.932;2022-10-16T05:44:12;96372.63;;;11.34;100.00
64141;BME280;50436;50.618;7.932;2022-10-16T05:46:57;96382.81;;;11.32;100.00
64141;BME280;50436;50.618;7.932;2022-10-16T05:49:43;96368.00;;;11.25;100.00
64141;BME280;50436;50.618;7.932;2022-10-16T05:52:29;96380.38;;;11.31;100.00
64141;BME280;50436;50.618;7.932;2022-10-16T05:55:15;96378.44;;;11.26;100.00
64141;BME280;50436;50.618;7.932;2022-10-16T05:58:01;96374.44;;;11.24;100.00
64141;BME280;50436;50.618;7.932;2022-10-16T06:00:58;96400.41;;;11.23;100.00
64141;BME280;50436;50.618;7.932;2022-10-16T06:03:44;96405.97;;;11.16;100.00
64141;BME280;50436;50.618;7.932;2022-10-16T06:06:30;96388.56;;;11.19;100.00
64141;BME280;50436;50.618;7.932;2022-10-16T06:09:16;96401.16;;;11.19;100.00
64141;BME280;50436;50.618;7.932;2022-10-16T06:12:05;96400.94;;;11.25;100.00
64141;BME280;50436;50.618;7.932;2022-10-16T06:14:50;96406.38;;;11.30;100.00
64141;BME280;50436;50.618;7.932;2022-10-16T06:17:36;96411.53;;;11.37;100.00
64141;BME280;50436;50.618;7.932;2022-10-16T06:20:22;96402.09;;;11.34;100.00
64141;BME280;50436;50.618;7.932;2022-10-16T06:23:08;96394.84;;;11.30;100.00
64141;BME280;50436;50.618;7.932;2022-10-16T06:25:54;96407.13;;;11.26;100.00
64141;BME280;50436;50.618;7.932;2022-10-16T06:28:40;96408.47;;;11.28;100.00
64141;BME280;50436;50.618;7.932;2022-10-16T06:31:27;96409.66;;;11.37;100.00
64141;BME280;50436;50.618;7.932;2022-10-16T06:34:15;96415.56;;;11.39;100.00
64141;BME280;50436;50.618;7.932;2022-10-16T06:37:01;96411.38;;;11.54;100.00
64141;BME280;50436;50.618;7.932;2022-10-16T06:39:47;96421.31;;;11.53;100.00
64141;BME280;50436;50.618;7.932;2022-10-16T06:42:33;96417.34;;;11.61;100.00
64141;BME280;50436;50.618;7.932;2022-10-16T06:45:21;96420.03;;;11.61;100.00
64141;BME280;50436;50.618;7.932;2022-10-16T06:48:07;96429.69;;;11.67;100.00
64141;BME280;50436;50.618;7.932;2022-10-16T06:53:48;96436.19;;;11.71;100.00
64141;BME280;50436;50.618;7.932;2022-10-16T06:56:36;96444.00;;;11.78;100.00
64141;BME280;50436;50.618;7.932;2022-10-16T06:59:22;96459.91;;;11.84;100.00
64141;BME280;50436;50.618;7.932;2022-10-16T07:02:08;96458.03;;;11.85;100.00
64141;BME280;50436;50.618;7.932;2022-10-16T07:04:55;96467.50;;;11.92;100.00
64141;BME280;50436;50.618;7.932;2022-10-16T07:07:42;96457.25;;;11.89;100.00
64141;BME280;50436;50.618;7.932;2022-10-16T07:10:31;96463.03;;;11.76;100.00
64141;BME280;50436;50.618;7.932;2022-10-16T07:13:17;96471.63;;;11.78;100.00
64141;BME280;50436;50.618;7.932;2022-10-16T07:16:14;96474.88;;;11.80;100.00
64141;BME280;50436;50.618;7.932;2022-10-16T07:19:01;96479.06;;;11.71;100.00
64141;BME280;50436;50.618;7.932;2022-10-16T07:21:47;96493.38;;;11.82;100.00
64141;BME280;50436;50.618;7.932;2022-10-16T07:24:33;96493.44;;;11.87;100.00
64141;BME280;50436;50.618;7.932;2022-10-16T07:27:19;96500.69;;;11.86;100.00
64141;BME280;50436;50.618;7.932;2022-10-16T07:30:08;96499.66;;;11.92;100.00
64141;BME280;50436;50.618;7.932;2022-10-16T07:32:54;96485.63;;;12.17;100.00
64141;BME280;50436;50.618;7.932;2022-10-16T07:35:50;96503.53;;;12.07;100.00
64141;BME280;50436;50.618;7.932;2022-10-16T07:38:36;96512.09;;;12.04;100.00
64141;BME280;50436;50.618;7.932;2022-10-16T07:41:23;96522.38;;;12.17;100.00
64141;BME280;50436;50.618;7.932;2022-10-16T07:44:09;96533.03;;;12.07;100.00
64141;BME280;50436;50.618;7.932;2022-10-16T07:46:55;96534.13;;;12.11;100.00
64141;BME280;50436;50.618;7.932;2022-10-16T07:49:41;96540.38;;;12.21;100.00
64141;BME280;50436;50.618;7.932;2022-10-16T07:52:30;96542.50;;;12.19;100.00
64141;BME280;50436;50.618;7.932;2022-10-16T07:55:15;96545.63;;;12.38;100.00
64141;BME280;50436;50.618;7.932;2022-10-16T07:58:01;96553.47;;;12.50;100.00
64141;BME280;50436;50.618;7.932;2022-10-16T08:00:47;96553.53;;;12.55;100.00
64141;BME280;50436;50.618;7.932;2022-10-16T08:03:33;96553.09;;;12.36;100.00
64141;BME280;50436;50.618;7.932;2022-10-16T08:06:20;96586.91;;;12.32;100.00
64141;BME280;50436;50.618;7.932;2022-10-16T08:09:07;96581.91;;;12.46;100.00
64141;BME280;50436;50.618;7.932;2022-10-16T08:11:53;96583.19;;;12.38;100.00
64141;BME280;50436;50.618;7.932;2022-10-16T08:14:39;96582.06;;;12.34;100.00
64141;BME280;50436;50.618;7.932;2022-10-16T08:17:25;96582.34;;;12.33;100.00
64141;BME280;50436;50.618;7.932;2022-10-16T08:20:11;96583.44;;;12.37;100.00
64141;BME280;50436;50.618;7.932;2022-10-16T08:22:58;96583.25;;;12.48;100.00
64141;BME280;50436;50.618;7.932;2022-10-16T08:25:44;96587.16;;;12.68;100.00
64141;BME280;50436;50.618;7.932;2022-10-16T08:28:30;96581.06;;;13.25;100.00
64141;BME280;50436;50.618;7.932;2022-10-16T08:31:16;96577.41;;;13.56;100.00
64141;BME280;50436;50.618;7.932;2022-10-16T08:34:02;96582.50;;;13.53;100.00
64141;BME280;50436;50.618;7.932;2022-10-16T08:36:48;96600.56;;;13.62;100.00
64141;BME280;50436;50.618;7.932;2022-10-16T08:39:34;96602.19;;;13.63;100.00
64141;BME280;50436;50.618;7.932;2022-10-16T08:42:55;96592.63;;;13.25;100.00
64141;BME280;50436;50.618;7.932;2022-10-16T08:49:03;96596.88;;;13.21;100.00
64141;BME280;50436;50.618;7.932;2022-10-16T08:51:52;96596.47;;;12.97;100.00
64141;BME280;50436;50.618;7.932;2022-10-16T08:54:44;96616.06;;;12.98;100.00
64141;BME280;50436;50.618;7.932;2022-10-16T08:57:31;96610.63;;;13.30;100.00
64141;BME280;50436;50.618;7.932;2022-10-16T09:00:18;96625.34;;;13.85;100.00
64141;BME280;50436;50.618;7.932;2022-10-16T09:09:59;96636.75;;;14.38;100.00
64141;BME280;50436;50.618;7.932;2022-10-16T09:13:00;96628.16;;;14.76;100.00
64141;BME280;50436;50.618;7.932;2022-10-16T09:16:13;96642.72;;;14.55;100.00
64141;BME280;50436;50.618;7.932;2022-10-16T09:21:50;96647.31;;;14.65;100.00
64141;BME280;50436;50.618;7.932;2022-10-16T09:24:37;96647.00;;;14.41;100.00
64141;BME280;50436;50.618;7.932;2022-10-16T09:27:23;96655.59;;;14.33;100.00
64141;BME280;50436;50.618;7.932;2022-10-16T09:30:19;96651.28;;;14.21;100.00
64141;BME280;50436;50.618;7.932;2022-10-16T09:33:06;96669.66;;;14.50;100.00
64141;BME280;50436;50.618;7.932;2022-10-16T09:35:54;96668.56;;;14.61;100.00
64141;BME280;50436;50.618;7.932;2022-10-16T09:38:41;96667.22;;;14.69;100.00
64141;BME280;50436;50.618;7.932;2022-10-16T09:41:27;96663.19;;;14.82;100.00
64141;BME280;50436;50.618;7.932;2022-10-16T09:44:21;96658.88;;;14.86;100.00
64141;BME280;50436;50.618;7.932;2022-10-16T09:47:14;96674.50;;;14.48;100.00
64141;BME280;50436;50.618;7.932;2022-10-16T09:50:05;96662.13;;;14.88;100.00
64141;BME280;50436;50.618;7.932;2022-10-16T09:53:09;96662.09;;;14.77;100.00
64141;BME280;50436;50.618;7.932;2022-10-16T09:55:56;96661.56;;;14.75;100.00
64141;BME280;50436;50.618;7.932;2022-10-16T09:58:43;96667.19;;;15.15;100.00
64141;BME280;50436;50.618;7.932;2022-10-16T10:01:36;96669.97;;;15.90;100.00
64141;BME280;50436;50.618;7.932;2022-10-16T10:04:24;96661.16;;;16.18;100.00
64141;BME280;50436;50.618;7.932;2022-10-16T10:07:32;96664.41;;;16.20;100.00
64141;BME280;50436;50.618;7.932;2022-10-16T10:10:23;96658.03;;;16.01;100.00
64141;BME280;50436;50.618;7.932;2022-10-16T10:13:24;96652.34;;;16.47;100.00
64141;BME280;50436;50.618;7.932;2022-10-16T10:16:10;96636.03;;;16.96;100.00
64141;BME280;50436;50.618;7.932;2022-10-16T10:18:59;96645.81;;;17.69;100.00
64141;BME280;50436;50.618;7.932;2022-10-16T10:21:46;96636.53;;;17.99;100.00
64141;BME280;50436;50.618;7.932;2022-10-16T10:24:32;96646.56;;;18.74;100.00
64141;BME280;50436;50.618;7.932;2022-10-16T10:27:18;96651.31;;;18.06;100.00
64141;BME280;50436;50.618;7.932;2022-10-16T10:30:19;96665.13;;;17.33;100.00
64141;BME280;50436;50.618;7.932;2022-10-16T10:36:16;96658.84;;;18.09;100.00
64141;BME280;50436;50.618;7.932;2022-10-16T10:39:13;96649.78;;;18.76;100.00
64141;BME280;50436;50.618;7.932;2022-10-16T10:42:30;96660.44;;;19.79;100.00
64141;BME280;50436;50.618;7.932;2022-10-16T10:45:37;96656.91;;;19.18;100.00
64141;BME280;50436;50.618;7.932;2022-10-16T10:48:43;96656.53;;;19.25;100.00
64141;BME280;50436;50.618;7.932;2022-10-16T11:01:10;96629.66;;;28.61;65.01
64141;BME280;50436;50.618;7.932;2022-10-16T11:04:43;96628.97;;;29.91;39.98
64141;BME280;50436;50.618;7.932;2022-10-16T11:07:36;96614.78;;;31.05;43.52
64141;BME280;50436;50.618;7.932;2022-10-16T11:13:39;96623.53;;;34.56;35.56
64141;BME280;50436;50.618;7.932;2022-10-16T11:16:31;96629.50;;;33.40;35.61
64141;BME280;50436;50.618;7.932;2022-10-16T11:22:22;96616.16;;;35.78;30.49
64141;BME280;50436;50.618;7.932;2022-10-16T11:28:16;96614.09;;;37.90;27.87
64141;BME280;50436;50.618;7.932;2022-10-16T11:34:06;96622.72;;;39.06;25.19
64141;BME280;50436;50.618;7.932;2022-10-16T11:37:14;96629.53;;;36.46;25.27
64141;BME280;50436;50.618;7.932;2022-10-16T11:40:25;96629.88;;;38.67;23.37
64141;BME280;50436;50.618;7.932;2022-10-16T11:43:31;96629.66;;;37.34;26.74
64141;BME280;50436;50.618;7.932;2022-10-16T11:46:20;96626.34;;;33.88;31.09
64141;BME280;50436;50.618;7.932;2022-10-16T11:49:15;96625.66;;;32.10;31.73
64141;BME280;50436;50.618;7.932;2022-10-16T11:52:16;96624.63;;;34.87;28.59
64141;BME280;50436;50.618;7.932;2022-10-16T11:57:58;96629.34;;;34.86;28.67
64141;BME280;50436;50.618;7.932;2022-10-16T12:04:20;96644.63;;;33.96;28.68
64141;BME280;50436;50.618;7.932;2022-10-16T12:07:11;96649.75;;;30.91;35.19
64141;BME280;50436;50.618;7.932;2022-10-16T12:10:20;96657.47;;;28.75;39.43
64141;BME280;50436;50.618;7.932;2022-10-16T12:19:18;96670.69;;;23.44;78.67
64141;BME280;50436;50.618;7.932;2022-10-16T12:22:17;96661.91;;;23.30;80.61
64141;BME280;50436;50.618;7.932;2022-10-16T12:25:04;96660.81;;;22.18;88.39
64141;BME280;50436;50.618;7.932;2022-10-16T12:28:26;96659.41;;;24.72;72.03
64141;BME280;50436;50.618;7.932;2022-10-16T12:31:13;96659.97;;;27.94;50.10
64141;BME280;50436;50.618;7.932;2022-10-16T12:34:02;96651.06;;;30.44;42.56
64141;BME280;50436;50.618;7.932;2022-10-16T12:36:49;96651.91;;;30.74;41.45
64141;BME280;50436;50.618;7.932;2022-10-16T12:39:35;96653.31;;;27.20;58.63
64141;BME280;50436;50.618;7.932;2022-10-16T12:48:22;96661.03;;;23.47;85.33
64141;BME280;50436;50.618;7.932;2022-10-16T12:54:18;96671.72;;;22.62;86.99
64141;BME280;50436;50.618;7.932;2022-10-16T13:09:32;96687.00;;;20.45;100.00
64141;BME280;50436;50.618;7.932;2022-10-16T13:12:42;96687.94;;;20.27;100.00
64141;BME280;50436;50.618;7.932;2022-10-16T13:15:46;96682.25;;;20.51;100.00
64141;BME280;50436;50.618;7.932;2022-10-16T13:18:55;96686.97;;;19.82;100.00
64141;BME280;50436;50.618;7.932;2022-10-16T13:21:56;96689.81;;;19.30;100.00
64141;BME280;50436;50.618;7.932;2022-10-16T13:28:06;96693.69;;;18.35;100.00
64141;BME280;50436;50.618;7.932;2022-10-16T13:30:55;96694.34;;;18.27;100.00
64141;BME280;50436;50.618;7.932;2022-10-16T13:33:46;96694.81;;;18.15;100.00
64141;BME280;50436;50.618;7.932;2022-10-16T13:36:51;96703.72;;;18.16;100.00
64141;BME280;50436;50.618;7.932;2022-10-16T13:39:37;96698.06;;;18.12;100.00
64141;BME280;50436;50.618;7.932;2022-10-16T13:42:26;96698.22;;;18.21;100.00
64141;BME280;50436;50.618;7.932;2022-10-16T13:45:21;96695.09;;;18.14;100.00
64141;BME280;50436;50.618;7.932;2022-10-16T13:48:09;96701.78;;;18.40;100.00
64141;BME280;50436;50.618;7.932;2022-10-16T13:51:14;96689.59;;;18.19;100.00
64141;BME280;50436;50.618;7.932;2022-10-16T13:54:00;96688.59;;;18.15;100.00
64141;BME280;50436;50.618;7.932;2022-10-16T13:56:46;96692.97;;;18.48;100.00
64141;BME280;50436;50.618;7.932;2022-10-16T13:59:36;96697.41;;;19.74;100.00
64141;BME280;50436;50.618;7.932;2022-10-16T14:02:35;96689.84;;;22.40;100.00
64141;BME280;50436;50.618;7.932;2022-10-16T14:05:22;96683.06;;;23.33;95.15
64141;BME280;50436;50.618;7.932;2022-10-16T14:08:10;96677.47;;;23.85;91.72
64141;BME280;50436;50.618;7.932;2022-10-16T14:10:59;96687.25;;;21.78;100.00
64141;BME280;50436;50.618;7.932;2022-10-16T14:13:46;96689.81;;;22.32;100.00
64141;BME280;50436;50.618;7.932;2022-10-16T14:16:32;96690.34;;;24.14;89.68
64141;BME280;50436;50.618;7.932;2022-10-16T14:19:22;96691.44;;;25.59;82.46
64141;BME280;50436;50.618;7.932;2022-10-16T14:28:15;96690.84;;;19.48;100.00
64141;BME280;50436;50.618;7.932;2022-10-16T14:31:02;96691.03;;;19.05;100.00
64141;BME280;50436;50.618;7.932;2022-10-16T14:34:26;96703.91;;;18.81;100.00
64141;BME280;50436;50.618;7.932;2022-10-16T14:37:22;96693.34;;;18.79;100.00
64141;BME280;50436;50.618;7.932;2022-10-16T14:40:14;96700.81;;;18.50;100.00
64141;BME280;50436;50.618;7.932;2022-10-16T14:43:02;96694.25;;;18.37;100.00
64141;BME280;50436;50.618;7.932;2022-10-16T14:45:53;96687.28;;;18.31;100.00
64141;BME280;50436;50.618;7.932;2022-10-16T14:48:46;96692.03;;;18.39;100.00
64141;BME280;50436;50.618;7.932;2022-10-16T14:51:33;96686.31;;;18.22;100.00
64141;BME280;50436;50.618;7.932;2022-10-16T14:54:21;96686.28;;;18.03;100.00
64141;BME280;50436;50.618;7.932;2022-10-16T14:57:20;96702.06;;;18.57;100.00
64141;BME280;50436;50.618;7.932;2022-10-16T15:00:17;96703.00;;;18.48;100.00
64141;BME280;50436;50.618;7.932;2022-10-16T15:03:04;96696.25;;;18.26;100.00
64141;BME280;50436;50.618;7.932;2022-10-16T15:05:50;96704.25;;;17.94;100.00
64141;BME280;50436;50.618;7.932;2022-10-16T15:08:36;96712.22;;;17.85;100.00
64141;BME280;50436;50.618;7.932;2022-10-16T15:11:21;96715.75;;;17.57;100.00
64141;BME280;50436;50.618;7.932;2022-10-16T15:14:11;96709.78;;;17.60;100.00
64141;BME280;50436;50.618;7.932;2022-10-16T15:16:58;96713.19;;;17.41;100.00
64141;BME280;50436;50.618;7.932;2022-10-16T15:19:44;96717.88;;;17.02;100.00
64141;BME280;50436;50.618;7.932;2022-10-16T15:22:32;96706.88;;;16.93;100.00
64141;BME280;50436;50.618;7.932;2022-10-16T15:25:35;96703.44;;;17.16;100.00
64141;BME280;50436;50.618;7.932;2022-10-16T15:28:23;96698.06;;;17.40;100.00
64141;BME280;50436;50.618;7.932;2022-10-16T15:31:09;96699.91;;;17.16;100.00
64141;BME280;50436;50.618;7.932;2022-10-16T15:33:55;96706.41;;;17.15;100.00
64141;BME280;50436;50.618;7.932;2022-10-16T15:36:46;96691.66;;;17.31;100.00
64141;BME280;50436;50.618;7.932;2022-10-16T15:39:32;96699.56;;;16.93;100.00
64141;BME280;50436;50.618;7.932;2022-10-16T15:42:18;96707.97;;;16.92;100.00
64141;BME280;50436;50.618;7.932;2022-10-16T15:45:04;96719.47;;;16.74;100.00
64141;BME280;50436;50.618;7.932;2022-10-16T15:47:52;96719.03;;;16.51;100.00
64141;BME280;50436;50.618;7.932;2022-10-16T15:50:38;96718.63;;;16.29;100.00
64141;BME280;50436;50.618;7.932;2022-10-16T15:53:26;96721.47;;;16.03;100.00
64141;BME280;50436;50.618;7.932;2022-10-16T15:56:13;96711.53;;;15.83;100.00
64141;BME280;50436;50.618;7.932;2022-10-16T15:59:02;96727.97;;;15.87;100.00
64141;BME280;50436;50.618;7.932;2022-10-16T16:01:50;96722.91;;;15.70;100.00
64141;BME280;50436;50.618;7.932;2022-10-16T16:04:36;96714.00;;;15.59;100.00
64141;BME280;50436;50.618;7.932;2022-10-16T16:07:25;96718.59;;;15.59;100.00
64141;BME280;50436;50.618;7.932;2022-10-16T16:10:13;96713.22;;;15.54;100.00
64141;BME280;50436;50.618;7.932;2022-10-16T16:12:59;96707.28;;;15.47;100.00
64141;BME280;50436;50.618;7.932;2022-10-16T16:15:45;96721.03;;;15.60;100.00
64141;BME280;50436;50.618;7.932;2022-10-16T16:18:31;96718.06;;;15.52;100.00
64141;BME280;50436;50.618;7.932;2022-10-16T16:21:17;96724.31;;;15.37;100.00
64141;BME280;50436;50.618;7.932;2022-10-16T16:24:03;96728.88;;;15.31;100.00